sensor_id;sensor_type;location;lat;lon;timestamp;P1;durP1;ratioP1;P2;durP2;ratioP2
76495;SDS011;65329;52.544;4.662;2023-05-10T00:00:39;20.80;;;11.05;;
76495;SDS011;65329;52.544;4.662;2023-05-10T00:03:06;20.58;;;12.27;;
76495;SDS011;65329;52.544;4.662;2023-05-10T00:05:33;22.02;;;10.77;;
76495;SDS011;65329;52.544;4.662;2023-05-10T00:08:01;20.35;;;10.30;;
76495;SDS011;65329;52.544;4.662;2023-05-10T00:10:27;19.05;;;11.68;;
76495;SDS011;65329;52.544;4.662;2023-05-10T00:12:55;22.13;;;11.68;;
76495;SDS011;65329;52.544;4.662;2023-05-10T00:15:22;28.10;;;11.75;;
76495;SDS011;65329;52.544;4.662;2023-05-10T00:17:49;30.65;;;11.82;;
76495;SDS011;65329;52.544;4.662;2023-05-10T00:20:15;29.95;;;11.90;;
76495;SDS011;65329;52.544;4.662;2023-05-10T00:22:43;33.70;;;10.90;;
76495;SDS011;65329;52.544;4.662;2023-05-10T00:25:10;25.88;;;11.65;;
76495;SDS011;65329;52.544;4.662;2023-05-10T00:27:37;32.00;;;11.18;;
76495;SDS011;65329;52.544;4.662;2023-05-10T00:30:04;39.08;;;12.18;;
76495;SDS011;65329;52.544;4.662;2023-05-10T00:32:31;38.75;;;12.50;;
76495;SDS011;65329;52.544;4.662;2023-05-10T00:34:58;35.28;;;13.55;;
76495;SDS011;65329;52.544;4.662;2023-05-10T00:37:25;33.28;;;13.48;;
76495;SDS011;65329;52.544;4.662;2023-05-10T00:39:53;32.97;;;12.50;;
76495;SDS011;65329;52.544;4.662;2023-05-10T00:42:20;51.42;;;10.80;;
76495;SDS011;65329;52.544;4.662;2023-05-10T00:44:48;55.30;;;8.90;;
76495;SDS011;65329;52.544;4.662;2023-05-10T00:47:15;49.58;;;8.85;;
76495;SDS011;65329;52.544;4.662;2023-05-10T00:49:43;47.35;;;7.22;;
76495;SDS011;65329;52.544;4.662;2023-05-10T00:52:11;41.50;;;5.72;;
76495;SDS011;65329;52.544;4.662;2023-05-10T00:54:38;37.17;;;8.25;;
76495;SDS011;65329;52.544;4.662;2023-05-10T00:57:05;36.40;;;5.50;;
76495;SDS011;65329;52.544;4.662;2023-05-10T00:59:32;37.30;;;5.30;;
76495;SDS011;65329;52.544;4.662;2023-05-10T01:01:59;21.83;;;5.10;;
76495;SDS011;65329;52.544;4.662;2023-05-10T01:04:28;20.45;;;5.30;;
76495;SDS011;65329;52.544;4.662;2023-05-10T01:06:56;15.77;;;4.68;;
76495;SDS011;65329;52.544;4.662;2023-05-10T01:09:23;12.18;;;4.63;;
76495;SDS011;65329;52.544;4.662;2023-05-10T01:11:52;13.85;;;4.40;;
76495;SDS011;65329;52.544;4.662;2023-05-10T01:14:21;19.58;;;5.20;;
76495;SDS011;65329;52.544;4.662;2023-05-10T01:16:48;13.57;;;4.93;;
76495;SDS011;65329;52.544;4.662;2023-05-10T01:19:21;13.90;;;5.05;;
76495;SDS011;65329;52.544;4.662;2023-05-10T01:32:53;19.40;;;4.20;;
76495;SDS011;65329;52.544;4.662;2023-05-10T01:35:45;21.33;;;4.32;;
76495;SDS011;65329;52.544;4.662;2023-05-10T01:38:24;11.43;;;3.92;;
76495;SDS011;65329;52.544;4.662;2023-05-10T01:47:10;20.48;;;4.90;;
76495;SDS011;65329;52.544;4.662;2023-05-10T01:49:45;20.85;;;4.53;;
76495;SDS011;65329;52.544;4.662;2023-05-10T01:52:16;15.48;;;3.80;;
76495;SDS011;65329;52.544;4.662;2023-05-10T01:54:51;16.65;;;3.80;;
76495;SDS011;65329;52.544;4.662;2023-05-10T01:57:22;12.38;;;3.92;;
76495;SDS011;65329;52.544;4.662;2023-05-10T01:59:54;13.30;;;3.70;;
76495;SDS011;65329;52.544;4.662;2023-05-10T02:02:21;15.35;;;4.03;;
76495;SDS011;65329;52.544;4.662;2023-05-10T02:04:50;9.85;;;2.67;;
76495;SDS011;65329;52.544;4.662;2023-05-10T02:07:19;18.02;;;4.05;;
76495;SDS011;65329;52.544;4.662;2023-05-10T02:09:48;10.48;;;3.10;;
76495;SDS011;65329;52.544;4.662;2023-05-10T02:12:15;10.32;;;3.58;;
76495;SDS011;65329;52.544;4.662;2023-05-10T02:14:43;8.52;;;3.53;;
76495;SDS011;65329;52.544;4.662;2023-05-10T02:17:11;13.52;;;3.75;;
76495;SDS011;65329;52.544;4.662;2023-05-10T02:19:40;15.27;;;3.88;;
76495;SDS011;65329;52.544;4.662;2023-05-10T02:22:10;9.13;;;3.30;;
76495;SDS011;65329;52.544;4.662;2023-05-10T02:24:38;16.23;;;4.40;;
76495;SDS011;65329;52.544;4.662;2023-05-10T02:27:06;13.80;;;3.88;;
76495;SDS011;65329;52.544;4.662;2023-05-10T02:29:36;13.68;;;3.97;;
76495;SDS011;65329;52.544;4.662;2023-05-10T02:32:03;10.85;;;4.13;;
76495;SDS011;65329;52.544;4.662;2023-05-10T02:34:33;13.27;;;4.70;;
76495;SDS011;65329;52.544;4.662;2023-05-10T02:37:00;11.57;;;3.92;;
76495;SDS011;65329;52.544;4.662;2023-05-10T02:39:29;11.98;;;4.57;;
76495;SDS011;65329;52.544;4.662;2023-05-10T02:41:58;13.02;;;3.72;;
76495;SDS011;65329;52.544;4.662;2023-05-10T02:44:26;10.73;;;3.95;;
76495;SDS011;65329;52.544;4.662;2023-05-10T02:46:57;6.90;;;3.83;;
76495;SDS011;65329;52.544;4.662;2023-05-10T02:49:24;8.30;;;4.25;;
76495;SDS011;65329;52.544;4.662;2023-05-10T02:51:56;9.32;;;4.05;;
76495;SDS011;65329;52.544;4.662;2023-05-10T02:54:28;9.20;;;4.15;;
76495;SDS011;65329;52.544;4.662;2023-05-10T02:56:58;8.63;;;4.30;;
76495;SDS011;65329;52.544;4.662;2023-05-10T02:59:28;11.23;;;4.00;;
76495;SDS011;65329;52.544;4.662;2023-05-10T03:01:54;13.65;;;4.45;;
76495;SDS011;65329;52.544;4.662;2023-05-10T03:04:22;14.93;;;5.45;;
76495;SDS011;65329;52.544;4.662;2023-05-10T03:06:49;8.30;;;4.07;;
76495;SDS011;65329;52.544;4.662;2023-05-10T03:09:17;16.00;;;4.88;;
76495;SDS011;65329;52.544;4.662;2023-05-10T03:17:30;11.10;;;5.70;;
76495;SDS011;65329;52.544;4.662;2023-05-10T03:20:04;13.90;;;5.93;;
76495;SDS011;65329;52.544;4.662;2023-05-10T03:22:37;11.68;;;5.93;;
76495;SDS011;65329;52.544;4.662;2023-05-10T03:25:08;15.57;;;5.82;;
76495;SDS011;65329;52.544;4.662;2023-05-10T03:27:40;15.00;;;5.30;;
76495;SDS011;65329;52.544;4.662;2023-05-10T03:30:12;16.63;;;6.10;;
76495;SDS011;65329;52.544;4.662;2023-05-10T03:32:40;11.25;;;5.35;;
76495;SDS011;65329;52.544;4.662;2023-05-10T03:35:11;10.95;;;5.78;;
76495;SDS011;65329;52.544;4.662;2023-05-10T03:37:40;10.75;;;5.88;;
76495;SDS011;65329;52.544;4.662;2023-05-10T03:40:07;10.73;;;6.32;;
76495;SDS011;65329;52.544;4.662;2023-05-10T03:42:39;12.70;;;5.95;;
76495;SDS011;65329;52.544;4.662;2023-05-10T03:45:06;12.65;;;5.85;;
76495;SDS011;65329;52.544;4.662;2023-05-10T03:47:34;11.68;;;5.68;;
76495;SDS011;65329;52.544;4.662;2023-05-10T03:50:01;10.73;;;6.47;;
76495;SDS011;65329;52.544;4.662;2023-05-10T03:52:28;15.18;;;6.10;;
76495;SDS011;65329;52.544;4.662;2023-05-10T03:54:56;13.65;;;6.63;;
76495;SDS011;65329;52.544;4.662;2023-05-10T03:57:23;12.30;;;6.38;;
76495;SDS011;65329;52.544;4.662;2023-05-10T03:59:50;14.57;;;6.82;;
76495;SDS011;65329;52.544;4.662;2023-05-10T04:02:17;11.82;;;6.22;;
76495;SDS011;65329;52.544;4.662;2023-05-10T04:04:45;12.68;;;6.05;;
76495;SDS011;65329;52.544;4.662;2023-05-10T04:07:12;12.98;;;6.25;;
76495;SDS011;65329;52.544;4.662;2023-05-10T04:09:39;15.90;;;7.60;;
76495;SDS011;65329;52.544;4.662;2023-05-10T04:12:06;16.08;;;7.13;;
76495;SDS011;65329;52.544;4.662;2023-05-10T04:14:36;17.90;;;7.43;;
76495;SDS011;65329;52.544;4.662;2023-05-10T04:17:03;13.60;;;6.85;;
76495;SDS011;65329;52.544;4.662;2023-05-10T04:19:31;13.65;;;7.00;;
76495;SDS011;65329;52.544;4.662;2023-05-10T04:21:58;11.15;;;6.88;;
76495;SDS011;65329;52.544;4.662;2023-05-10T04:24:26;16.08;;;7.63;;
76495;SDS011;65329;52.544;4.662;2023-05-10T04:26:53;12.90;;;7.00;;
76495;SDS011;65329;52.544;4.662;2023-05-10T04:29:23;12.65;;;7.20;;
76495;SDS011;65329;52.544;4.662;2023-05-10T04:31:50;13.35;;;7.35;;
76495;SDS011;65329;52.544;4.662;2023-05-10T04:34:17;12.15;;;6.63;;
76495;SDS011;65329;52.544;4.662;2023-05-10T04:36:44;12.05;;;6.38;;
76495;SDS011;65329;52.544;4.662;2023-05-10T04:39:11;11.70;;;7.07;;
76495;SDS011;65329;52.544;4.662;2023-05-10T04:41:38;11.63;;;6.60;;
76495;SDS011;65329;52.544;4.662;2023-05-10T04:44:05;13.75;;;6.82;;
76495;SDS011;65329;52.544;4.662;2023-05-10T04:46:32;13.27;;;7.40;;
76495;SDS011;65329;52.544;4.662;2023-05-10T04:48:59;13.85;;;7.55;;
76495;SDS011;65329;52.544;4.662;2023-05-10T04:51:26;14.55;;;8.00;;
76495;SDS011;65329;52.544;4.662;2023-05-10T04:53:53;12.45;;;7.63;;
76495;SDS011;65329;52.544;4.662;2023-05-10T04:56:31;14.27;;;7.18;;
76495;SDS011;65329;52.544;4.662;2023-05-10T04:58:58;15.40;;;8.32;;
76495;SDS011;65329;52.544;4.662;2023-05-10T05:01:25;12.60;;;7.47;;
76495;SDS011;65329;52.544;4.662;2023-05-10T05:03:52;13.95;;;8.98;;
76495;SDS011;65329;52.544;4.662;2023-05-10T05:06:19;13.38;;;7.25;;
76495;SDS011;65329;52.544;4.662;2023-05-10T05:08:47;13.18;;;7.28;;
76495;SDS011;65329;52.544;4.662;2023-05-10T05:11:16;15.07;;;7.57;;
76495;SDS011;65329;52.544;4.662;2023-05-10T05:13:43;10.75;;;6.97;;
76495;SDS011;65329;52.544;4.662;2023-05-10T05:16:10;10.63;;;6.80;;
76495;SDS011;65329;52.544;4.662;2023-05-10T05:18:40;10.90;;;6.13;;
76495;SDS011;65329;52.544;4.662;2023-05-10T05:21:13;10.95;;;6.32;;
76495;SDS011;65329;52.544;4.662;2023-05-10T05:23:44;12.80;;;6.95;;
76495;SDS011;65329;52.544;4.662;2023-05-10T05:26:11;11.07;;;6.07;;
76495;SDS011;65329;52.544;4.662;2023-05-10T05:28:38;12.45;;;6.15;;
76495;SDS011;65329;52.544;4.662;2023-05-10T05:31:08;11.48;;;6.45;;
76495;SDS011;65329;52.544;4.662;2023-05-10T05:33:35;10.00;;;5.97;;
76495;SDS011;65329;52.544;4.662;2023-05-10T05:36:03;11.38;;;6.35;;
76495;SDS011;65329;52.544;4.662;2023-05-10T05:38:31;10.15;;;6.15;;
76495;SDS011;65329;52.544;4.662;2023-05-10T05:40:58;12.55;;;6.32;;
76495;SDS011;65329;52.544;4.662;2023-05-10T05:43:25;12.65;;;6.75;;
76495;SDS011;65329;52.544;4.662;2023-05-10T05:45:52;12.90;;;6.80;;
76495;SDS011;65329;52.544;4.662;2023-05-10T05:48:20;12.98;;;7.45;;
76495;SDS011;65329;52.544;4.662;2023-05-10T05:50:47;12.40;;;6.07;;
76495;SDS011;65329;52.544;4.662;2023-05-10T05:53:14;10.45;;;6.53;;
76495;SDS011;65329;52.544;4.662;2023-05-10T05:55:55;14.45;;;6.75;;
76495;SDS011;65329;52.544;4.662;2023-05-10T05:58:24;15.10;;;6.82;;
76495;SDS011;65329;52.544;4.662;2023-05-10T06:00:51;13.88;;;6.88;;
76495;SDS011;65329;52.544;4.662;2023-05-10T06:03:19;14.50;;;7.13;;
76495;SDS011;65329;52.544;4.662;2023-05-10T06:05:47;11.48;;;6.70;;
76495;SDS011;65329;52.544;4.662;2023-05-10T06:08:14;10.13;;;5.80;;
76495;SDS011;65329;52.544;4.662;2023-05-10T06:10:41;10.85;;;5.95;;
76495;SDS011;65329;52.544;4.662;2023-05-10T06:13:08;10.82;;;6.20;;
76495;SDS011;65329;52.544;4.662;2023-05-10T06:15:35;13.07;;;6.10;;
76495;SDS011;65329;52.544;4.662;2023-05-10T06:18:02;13.35;;;6.80;;
76495;SDS011;65329;52.544;4.662;2023-05-10T06:20:29;9.23;;;5.50;;
76495;SDS011;65329;52.544;4.662;2023-05-10T06:22:58;11.75;;;6.72;;
76495;SDS011;65329;52.544;4.662;2023-05-10T06:25:25;13.30;;;7.25;;
76495;SDS011;65329;52.544;4.662;2023-05-10T06:27:52;11.65;;;6.28;;
76495;SDS011;65329;52.544;4.662;2023-05-10T06:30:24;13.15;;;6.22;;
76495;SDS011;65329;52.544;4.662;2023-05-10T06:35:22;8.65;;;5.03;;
76495;SDS011;65329;52.544;4.662;2023-05-10T06:37:49;10.32;;;5.80;;
76495;SDS011;65329;52.544;4.662;2023-05-10T06:40:16;11.57;;;5.68;;
76495;SDS011;65329;52.544;4.662;2023-05-10T06:42:43;9.88;;;5.47;;
76495;SDS011;65329;52.544;4.662;2023-05-10T06:45:13;14.05;;;6.68;;
76495;SDS011;65329;52.544;4.662;2023-05-10T06:47:41;8.60;;;5.45;;
76495;SDS011;65329;52.544;4.662;2023-05-10T06:50:08;9.02;;;5.68;;
76495;SDS011;65329;52.544;4.662;2023-05-10T06:52:36;8.85;;;5.80;;
76495;SDS011;65329;52.544;4.662;2023-05-10T06:55:04;9.32;;;5.45;;
76495;SDS011;65329;52.544;4.662;2023-05-10T06:57:31;8.32;;;4.88;;
76495;SDS011;65329;52.544;4.662;2023-05-10T06:59:58;8.75;;;5.18;;
76495;SDS011;65329;52.544;4.662;2023-05-10T07:02:25;8.38;;;4.63;;
76495;SDS011;65329;52.544;4.662;2023-05-10T07:04:53;8.23;;;4.95;;
76495;SDS011;65329;52.544;4.662;2023-05-10T07:07:20;8.25;;;4.43;;
76495;SDS011;65329;52.544;4.662;2023-05-10T07:09:47;6.90;;;3.85;;
76495;SDS011;65329;52.544;4.662;2023-05-10T07:12:15;6.85;;;4.28;;
76495;SDS011;65329;52.544;4.662;2023-05-10T07:14:42;7.80;;;5.03;;
76495;SDS011;65329;52.544;4.662;2023-05-10T07:17:09;7.90;;;4.65;;
76495;SDS011;65329;52.544;4.662;2023-05-10T07:19:36;7.63;;;4.80;;
76495;SDS011;65329;52.544;4.662;2023-05-10T07:22:03;11.30;;;5.45;;
76495;SDS011;65329;52.544;4.662;2023-05-10T07:24:31;8.57;;;5.07;;
76495;SDS011;65329;52.544;4.662;2023-05-10T07:26:58;9.73;;;5.75;;
76495;SDS011;65329;52.544;4.662;2023-05-10T07:29:27;8.73;;;4.70;;
76495;SDS011;65329;52.544;4.662;2023-05-10T07:31:55;6.63;;;3.95;;
76495;SDS011;65329;52.544;4.662;2023-05-10T07:34:24;7.57;;;3.90;;
76495;SDS011;65329;52.544;4.662;2023-05-10T07:36:52;7.78;;;4.00;;
76495;SDS011;65329;52.544;4.662;2023-05-10T07:39:19;4.93;;;3.50;;
76495;SDS011;65329;52.544;4.662;2023-05-10T07:41:53;7.03;;;3.92;;
76495;SDS011;65329;52.544;4.662;2023-05-10T07:44:21;6.32;;;3.75;;
76495;SDS011;65329;52.544;4.662;2023-05-10T07:46:48;7.35;;;3.50;;
76495;SDS011;65329;52.544;4.662;2023-05-10T07:49:16;7.68;;;4.13;;
76495;SDS011;65329;52.544;4.662;2023-05-10T07:51:43;9.25;;;4.50;;
76495;SDS011;65329;52.544;4.662;2023-05-10T07:54:10;7.53;;;4.63;;
76495;SDS011;65329;52.544;4.662;2023-05-10T07:56:37;6.55;;;4.28;;
76495;SDS011;65329;52.544;4.662;2023-05-10T07:59:06;8.50;;;5.22;;
76495;SDS011;65329;52.544;4.662;2023-05-10T08:01:35;8.32;;;5.03;;
76495;SDS011;65329;52.544;4.662;2023-05-10T08:04:02;9.93;;;5.38;;
76495;SDS011;65329;52.544;4.662;2023-05-10T08:06:29;9.32;;;4.68;;
76495;SDS011;65329;52.544;4.662;2023-05-10T08:08:57;8.18;;;4.55;;
76495;SDS011;65329;52.544;4.662;2023-05-10T08:11:24;8.85;;;4.63;;
76495;SDS011;65329;52.544;4.662;2023-05-10T08:13:51;7.05;;;4.35;;
76495;SDS011;65329;52.544;4.662;2023-05-10T08:16:18;6.78;;;4.68;;
76495;SDS011;65329;52.544;4.662;2023-05-10T08:18:46;8.02;;;4.82;;
76495;SDS011;65329;52.544;4.662;2023-05-10T08:21:13;8.27;;;5.10;;
76495;SDS011;65329;52.544;4.662;2023-05-10T08:23:41;9.43;;;5.25;;
76495;SDS011;65329;52.544;4.662;2023-05-10T08:26:10;10.38;;;5.80;;
76495;SDS011;65329;52.544;4.662;2023-05-10T08:28:37;13.68;;;6.15;;
76495;SDS011;65329;52.544;4.662;2023-05-10T08:31:04;11.35;;;6.20;;
76495;SDS011;65329;52.544;4.662;2023-05-10T08:33:32;10.77;;;5.88;;
76495;SDS011;65329;52.544;4.662;2023-05-10T08:35:59;10.18;;;6.20;;
76495;SDS011;65329;52.544;4.662;2023-05-10T08:38:26;11.13;;;5.85;;
76495;SDS011;65329;52.544;4.662;2023-05-10T08:40:53;13.60;;;6.60;;
76495;SDS011;65329;52.544;4.662;2023-05-10T08:43:28;13.32;;;6.55;;
76495;SDS011;65329;52.544;4.662;2023-05-10T08:45:56;9.27;;;5.70;;
76495;SDS011;65329;52.544;4.662;2023-05-10T08:48:33;11.68;;;6.82;;
76495;SDS011;65329;52.544;4.662;2023-05-10T08:51:01;12.48;;;7.05;;
76495;SDS011;65329;52.544;4.662;2023-05-10T08:53:30;12.73;;;7.03;;
76495;SDS011;65329;52.544;4.662;2023-05-10T08:56:00;17.20;;;8.35;;
76495;SDS011;65329;52.544;4.662;2023-05-10T08:58:28;16.45;;;6.50;;
76495;SDS011;65329;52.544;4.662;2023-05-10T09:00:56;16.35;;;8.80;;
76495;SDS011;65329;52.544;4.662;2023-05-10T09:03:24;13.35;;;6.93;;
76495;SDS011;65329;52.544;4.662;2023-05-10T09:05:51;14.23;;;7.22;;
76495;SDS011;65329;52.544;4.662;2023-05-10T09:08:18;15.68;;;6.53;;
76495;SDS011;65329;52.544;4.662;2023-05-10T09:10:46;12.18;;;6.80;;
76495;SDS011;65329;52.544;4.662;2023-05-10T09:13:14;14.27;;;7.50;;
76495;SDS011;65329;52.544;4.662;2023-05-10T09:15:44;15.80;;;7.80;;
76495;SDS011;65329;52.544;4.662;2023-05-10T09:18:12;14.05;;;7.20;;
76495;SDS011;65329;52.544;4.662;2023-05-10T09:20:39;15.32;;;7.32;;
76495;SDS011;65329;52.544;4.662;2023-05-10T09:23:07;14.05;;;7.10;;
76495;SDS011;65329;52.544;4.662;2023-05-10T09:25:34;13.80;;;6.75;;
76495;SDS011;65329;52.544;4.662;2023-05-10T09:28:02;14.38;;;7.03;;
76495;SDS011;65329;52.544;4.662;2023-05-10T09:30:32;13.13;;;6.25;;
76495;SDS011;65329;52.544;4.662;2023-05-10T09:32:59;10.98;;;5.78;;
76495;SDS011;65329;52.544;4.662;2023-05-10T09:35:28;10.25;;;5.68;;
76495;SDS011;65329;52.544;4.662;2023-05-10T09:37:59;12.73;;;6.38;;
76495;SDS011;65329;52.544;4.662;2023-05-10T09:40:31;11.95;;;6.43;;
76495;SDS011;65329;52.544;4.662;2023-05-10T09:45:30;15.88;;;7.90;;
76495;SDS011;65329;52.544;4.662;2023-05-10T09:47:58;10.82;;;6.10;;
76495;SDS011;65329;52.544;4.662;2023-05-10T09:50:27;14.43;;;7.32;;
76495;SDS011;65329;52.544;4.662;2023-05-10T09:52:56;15.50;;;6.90;;
76495;SDS011;65329;52.544;4.662;2023-05-10T09:55:40;13.07;;;6.95;;
76495;SDS011;65329;52.544;4.662;2023-05-10T09:58:11;15.10;;;8.13;;
76495;SDS011;65329;52.544;4.662;2023-05-10T10:00:40;10.98;;;6.30;;
76495;SDS011;65329;52.544;4.662;2023-05-10T10:03:18;13.90;;;6.35;;
76495;SDS011;65329;52.544;4.662;2023-05-10T10:05:46;13.90;;;7.80;;
76495;SDS011;65329;52.544;4.662;2023-05-10T10:08:14;12.57;;;7.40;;
76495;SDS011;65329;52.544;4.662;2023-05-10T10:10:42;12.50;;;6.57;;
76495;SDS011;65329;52.544;4.662;2023-05-10T10:13:15;13.30;;;6.57;;
76495;SDS011;65329;52.544;4.662;2023-05-10T10:15:43;11.98;;;6.63;;
76495;SDS011;65329;52.544;4.662;2023-05-10T10:18:12;11.45;;;6.68;;
76495;SDS011;65329;52.544;4.662;2023-05-10T10:20:41;12.30;;;6.45;;
76495;SDS011;65329;52.544;4.662;2023-05-10T10:23:08;13.07;;;7.25;;
76495;SDS011;65329;52.544;4.662;2023-05-10T10:25:36;14.57;;;7.53;;
76495;SDS011;65329;52.544;4.662;2023-05-10T10:30:46;13.32;;;6.90;;
76495;SDS011;65329;52.544;4.662;2023-05-10T10:35:54;16.55;;;7.38;;
76495;SDS011;65329;52.544;4.662;2023-05-10T10:38:24;14.38;;;7.47;;
76495;SDS011;65329;52.544;4.662;2023-05-10T10:41:10;13.73;;;6.63;;
76495;SDS011;65329;52.544;4.662;2023-05-10T10:52:28;12.90;;;6.53;;
76495;SDS011;65329;52.544;4.662;2023-05-10T10:55:04;11.93;;;6.55;;
76495;SDS011;65329;52.544;4.662;2023-05-10T10:57:33;12.15;;;6.15;;
76495;SDS011;65329;52.544;4.662;2023-05-10T11:08:08;12.60;;;6.28;;
76495;SDS011;65329;52.544;4.662;2023-05-10T11:10:38;10.75;;;6.00;;
76495;SDS011;65329;52.544;4.662;2023-05-10T11:13:06;11.20;;;5.85;;
76495;SDS011;65329;52.544;4.662;2023-05-10T11:15:36;8.32;;;5.80;;
76495;SDS011;65329;52.544;4.662;2023-05-10T11:20:57;7.45;;;4.50;;
76495;SDS011;65329;52.544;4.662;2023-05-10T11:26:07;8.45;;;4.93;;
76495;SDS011;65329;52.544;4.662;2023-05-10T11:28:47;9.82;;;5.30;;
76495;SDS011;65329;52.544;4.662;2023-05-10T11:31:16;8.23;;;4.93;;
76495;SDS011;65329;52.544;4.662;2023-05-10T11:33:44;10.07;;;5.82;;
76495;SDS011;65329;52.544;4.662;2023-05-10T11:36:14;14.65;;;6.47;;
76495;SDS011;65329;52.544;4.662;2023-05-10T11:38:42;8.70;;;5.28;;
76495;SDS011;65329;52.544;4.662;2023-05-10T11:41:10;8.15;;;4.57;;
76495;SDS011;65329;52.544;4.662;2023-05-10T11:43:41;11.45;;;5.57;;
76495;SDS011;65329;52.544;4.662;2023-05-10T11:46:12;10.27;;;5.47;;
76495;SDS011;65329;52.544;4.662;2023-05-10T11:48:40;10.15;;;5.80;;
76495;SDS011;65329;52.544;4.662;2023-05-10T11:51:08;9.30;;;5.10;;
76495;SDS011;65329;52.544;4.662;2023-05-10T11:53:35;9.48;;;5.80;;
76495;SDS011;65329;52.544;4.662;2023-05-10T11:56:04;10.43;;;6.47;;
76495;SDS011;65329;52.544;4.662;2023-05-10T11:58:36;11.45;;;5.50;;
76495;SDS011;65329;52.544;4.662;2023-05-10T12:01:04;9.32;;;5.32;;
76495;SDS011;65329;52.544;4.662;2023-05-10T12:03:33;8.00;;;5.57;;
76495;SDS011;65329;52.544;4.662;2023-05-10T12:06:02;7.80;;;5.22;;
76495;SDS011;65329;52.544;4.662;2023-05-10T12:08:30;9.80;;;5.35;;
76495;SDS011;65329;52.544;4.662;2023-05-10T12:11:04;9.57;;;5.43;;
76495;SDS011;65329;52.544;4.662;2023-05-10T12:13:37;7.38;;;5.32;;
76495;SDS011;65329;52.544;4.662;2023-05-10T12:16:15;8.82;;;4.93;;
76495;SDS011;65329;52.544;4.662;2023-05-10T12:18:43;9.25;;;5.53;;
76495;SDS011;65329;52.544;4.662;2023-05-10T12:21:11;14.38;;;6.80;;
76495;SDS011;65329;52.544;4.662;2023-05-10T12:23:39;12.63;;;7.15;;
76495;SDS011;65329;52.544;4.662;2023-05-10T12:26:06;13.13;;;6.63;;
76495;SDS011;65329;52.544;4.662;2023-05-10T12:28:36;9.20;;;5.53;;
76495;SDS011;65329;52.544;4.662;2023-05-10T12:31:03;8.10;;;4.95;;
76495;SDS011;65329;52.544;4.662;2023-05-10T12:33:50;7.40;;;4.85;;
76495;SDS011;65329;52.544;4.662;2023-05-10T12:36:17;6.50;;;4.57;;
76495;SDS011;65329;52.544;4.662;2023-05-10T12:38:50;5.60;;;4.03;;
76495;SDS011;65329;52.544;4.662;2023-05-10T12:41:19;5.03;;;3.58;;
76495;SDS011;65329;52.544;4.662;2023-05-10T12:43:46;5.63;;;3.80;;
76495;SDS011;65329;52.544;4.662;2023-05-10T12:46:16;7.30;;;3.85;;
76495;SDS011;65329;52.544;4.662;2023-05-10T12:48:44;6.85;;;4.10;;
76495;SDS011;65329;52.544;4.662;2023-05-10T12:51:13;5.07;;;3.45;;
76495;SDS011;65329;52.544;4.662;2023-05-10T12:53:43;4.28;;;3.35;;
76495;SDS011;65329;52.544;4.662;2023-05-10T12:56:14;5.43;;;2.97;;
76495;SDS011;65329;52.544;4.662;2023-05-10T12:58:41;5.40;;;3.65;;
76495;SDS011;65329;52.544;4.662;2023-05-10T13:01:08;5.38;;;3.92;;
76495;SDS011;65329;52.544;4.662;2023-05-10T13:03:35;6.47;;;4.28;;
76495;SDS011;65329;52.544;4.662;2023-05-10T13:06:04;5.05;;;3.50;;
76495;SDS011;65329;52.544;4.662;2023-05-10T13:08:32;8.73;;;4.70;;
76495;SDS011;65329;52.544;4.662;2023-05-10T13:11:02;6.25;;;3.70;;
76495;SDS011;65329;52.544;4.662;2023-05-10T13:13:29;4.13;;;3.13;;
76495;SDS011;65329;52.544;4.662;2023-05-10T13:15:56;4.95;;;2.97;;
76495;SDS011;65329;52.544;4.662;2023-05-10T13:18:26;3.60;;;2.83;;
76495;SDS011;65329;52.544;4.662;2023-05-10T13:20:59;4.65;;;3.10;;
76495;SDS011;65329;52.544;4.662;2023-05-10T13:23:27;3.88;;;3.22;;
76495;SDS011;65329;52.544;4.662;2023-05-10T13:25:57;4.63;;;3.22;;
76495;SDS011;65329;52.544;4.662;2023-05-10T13:28:25;3.72;;;3.03;;
76495;SDS011;65329;52.544;4.662;2023-05-10T13:30:52;3.78;;;3.00;;
76495;SDS011;65329;52.544;4.662;2023-05-10T13:33:19;4.93;;;3.50;;
76495;SDS011;65329;52.544;4.662;2023-05-10T13:35:47;6.13;;;3.60;;
76495;SDS011;65329;52.544;4.662;2023-05-10T13:38:13;5.55;;;2.95;;
76495;SDS011;65329;52.544;4.662;2023-05-10T13:40:40;5.72;;;3.72;;
76495;SDS011;65329;52.544;4.662;2023-05-10T13:43:07;7.40;;;4.45;;
76495;SDS011;65329;52.544;4.662;2023-05-10T13:45:34;5.47;;;3.70;;
76495;SDS011;65329;52.544;4.662;2023-05-10T13:48:01;6.10;;;3.83;;
76495;SDS011;65329;52.544;4.662;2023-05-10T13:50:28;6.68;;;3.60;;
76495;SDS011;65329;52.544;4.662;2023-05-10T13:52:55;5.85;;;3.70;;
76495;SDS011;65329;52.544;4.662;2023-05-10T13:55:22;6.30;;;3.67;;
76495;SDS011;65329;52.544;4.662;2023-05-10T13:57:49;5.68;;;4.25;;
76495;SDS011;65329;52.544;4.662;2023-05-10T14:00:16;7.10;;;3.97;;
76495;SDS011;65329;52.544;4.662;2023-05-10T14:02:44;5.45;;;4.15;;
76495;SDS011;65329;52.544;4.662;2023-05-10T14:05:11;6.97;;;3.92;;
76495;SDS011;65329;52.544;4.662;2023-05-10T14:07:39;7.88;;;4.70;;
76495;SDS011;65329;52.544;4.662;2023-05-10T14:10:06;5.47;;;3.97;;
76495;SDS011;65329;52.544;4.662;2023-05-10T14:12:33;7.45;;;4.45;;
76495;SDS011;65329;52.544;4.662;2023-05-10T14:15:00;5.70;;;3.83;;
76495;SDS011;65329;52.544;4.662;2023-05-10T14:17:27;6.80;;;4.57;;
76495;SDS011;65329;52.544;4.662;2023-05-10T14:19:56;4.85;;;3.53;;
76495;SDS011;65329;52.544;4.662;2023-05-10T14:22:23;6.30;;;3.85;;
76495;SDS011;65329;52.544;4.662;2023-05-10T14:24:50;5.40;;;3.58;;
76495;SDS011;65329;52.544;4.662;2023-05-10T14:27:18;8.05;;;3.88;;
76495;SDS011;65329;52.544;4.662;2023-05-10T14:29:46;5.28;;;4.10;;
76495;SDS011;65329;52.544;4.662;2023-05-10T14:32:15;6.30;;;3.60;;
76495;SDS011;65329;52.544;4.662;2023-05-10T14:34:41;5.53;;;4.35;;
76495;SDS011;65329;52.544;4.662;2023-05-10T14:37:10;7.07;;;4.05;;
76495;SDS011;65329;52.544;4.662;2023-05-10T14:39:37;5.68;;;4.38;;
76495;SDS011;65329;52.544;4.662;2023-05-10T14:42:04;3.95;;;3.15;;
76495;SDS011;65329;52.544;4.662;2023-05-10T14:44:33;5.40;;;3.70;;
76495;SDS011;65329;52.544;4.662;2023-05-10T14:47:00;5.30;;;3.83;;
76495;SDS011;65329;52.544;4.662;2023-05-10T14:49:27;6.10;;;4.22;;
76495;SDS011;65329;52.544;4.662;2023-05-10T14:51:54;7.60;;;5.05;;
76495;SDS011;65329;52.544;4.662;2023-05-10T14:54:21;6.20;;;4.63;;
76495;SDS011;65329;52.544;4.662;2023-05-10T14:56:48;5.03;;;3.70;;
76495;SDS011;65329;52.544;4.662;2023-05-10T14:59:16;6.45;;;4.18;;
76495;SDS011;65329;52.544;4.662;2023-05-10T15:01:44;6.75;;;4.00;;
76495;SDS011;65329;52.544;4.662;2023-05-10T15:04:11;5.70;;;3.85;;
76495;SDS011;65329;52.544;4.662;2023-05-10T15:06:42;7.32;;;4.53;;
76495;SDS011;65329;52.544;4.662;2023-05-10T15:09:09;7.28;;;4.82;;
76495;SDS011;65329;52.544;4.662;2023-05-10T15:11:37;9.55;;;4.85;;
76495;SDS011;65329;52.544;4.662;2023-05-10T15:14:04;5.78;;;4.57;;
76495;SDS011;65329;52.544;4.662;2023-05-10T15:16:31;7.68;;;4.63;;
76495;SDS011;65329;52.544;4.662;2023-05-10T15:19:02;6.80;;;4.63;;
76495;SDS011;65329;52.544;4.662;2023-05-10T15:21:29;7.28;;;4.68;;
76495;SDS011;65329;52.544;4.662;2023-05-10T15:24:06;4.95;;;3.85;;
76495;SDS011;65329;52.544;4.662;2023-05-10T15:26:33;5.13;;;2.97;;
76495;SDS011;65329;52.544;4.662;2023-05-10T15:29:00;6.57;;;3.70;;
76495;SDS011;65329;52.544;4.662;2023-05-10T15:31:31;7.82;;;3.95;;
76495;SDS011;65329;52.544;4.662;2023-05-10T15:33:58;7.25;;;4.18;;
76495;SDS011;65329;52.544;4.662;2023-05-10T15:36:26;4.70;;;3.83;;
76495;SDS011;65329;52.544;4.662;2023-05-10T15:38:54;4.70;;;3.50;;
76495;SDS011;65329;52.544;4.662;2023-05-10T15:41:21;5.60;;;3.50;;